Sinton, Texas
Current Conditions -  °F | °C
As of 5:51 AM on Thursday 23 Oct 2014 (Local Time) from KCRP Reporting Station
Scattered Clouds Scattered Clouds  
Wind Chill: 67°   Ceiling: Unl
Heat Index: 67°   Visibility: 10mi
Dew Point: 63°   Wind: 8mph
Humidity: 87%   Direction: 360°N
Pressure: 30.03"   Gusts: NA
Location:  28.04°N, 97.51°W
Report Text: KCRP 231051Z 36007KT 10SM FEW019 SCT250 19/17 A3003 RMK AO2 SLP169 T01940172
Loading
Personal Weather Stations






























Interactive Weather Map
Tropical Storm Tracking
New forecast layout! Learn more

10-Day Weather Forecast

Advertisements
Track Severe Weather on mobile